sensor_id;sensor_type;location;lat;lon;timestamp;temperature;humidity
14585;DHT22;7379;51.506;11.876;2022-09-02T00:01:24;18.70;51.40
14585;DHT22;7379;51.506;11.876;2022-09-02T00:03:55;18.60;51.40
14585;DHT22;7379;51.506;11.876;2022-09-02T00:06:22;18.60;51.40
14585;DHT22;7379;51.506;11.876;2022-09-02T00:08:51;18.60;51.50
14585;DHT22;7379;51.506;11.876;2022-09-02T00:11:21;18.60;51.60
14585;DHT22;7379;51.506;11.876;2022-09-02T00:13:49;18.60;51.60
14585;DHT22;7379;51.506;11.876;2022-09-02T00:16:17;18.60;51.60
14585;DHT22;7379;51.506;11.876;2022-09-02T00:18:44;18.60;51.70
14585;DHT22;7379;51.506;11.876;2022-09-02T00:21:13;18.50;51.60
14585;DHT22;7379;51.506;11.876;2022-09-02T00:23:42;18.60;51.70
14585;DHT22;7379;51.506;11.876;2022-09-02T00:26:12;18.50;51.70
14585;DHT22;7379;51.506;11.876;2022-09-02T00:28:40;18.50;51.80
14585;DHT22;7379;51.506;11.876;2022-09-02T00:31:07;18.50;51.90
14585;DHT22;7379;51.506;11.876;2022-09-02T00:33:33;18.50;51.90
14585;DHT22;7379;51.506;11.876;2022-09-02T00:36:01;18.50;51.90
14585;DHT22;7379;51.506;11.876;2022-09-02T00:38:29;18.40;52.00
14585;DHT22;7379;51.506;11.876;2022-09-02T00:40:56;18.40;52.00
14585;DHT22;7379;51.506;11.876;2022-09-02T00:43:37;18.40;52.00
14585;DHT22;7379;51.506;11.876;2022-09-02T00:46:04;18.40;52.70
14585;DHT22;7379;51.506;11.876;2022-09-02T00:48:31;18.40;52.20
14585;DHT22;7379;51.506;11.876;2022-09-02T00:50:58;18.40;52.20
14585;DHT22;7379;51.506;11.876;2022-09-02T00:53:25;18.40;52.30
14585;DHT22;7379;51.506;11.876;2022-09-02T00:55:51;18.40;52.30
14585;DHT22;7379;51.506;11.876;2022-09-02T00:58:21;18.30;52.20
14585;DHT22;7379;51.506;11.876;2022-09-02T01:00:53;18.30;52.30
14585;DHT22;7379;51.506;11.876;2022-09-02T01:03:25;18.30;52.40
14585;DHT22;7379;51.506;11.876;2022-09-02T01:05:54;18.30;52.40
14585;DHT22;7379;51.506;11.876;2022-09-02T01:08:25;18.30;52.50
14585;DHT22;7379;51.506;11.876;2022-09-02T01:10:55;18.30;52.50
14585;DHT22;7379;51.506;11.876;2022-09-02T01:13:25;18.30;52.60
14585;DHT22;7379;51.506;11.876;2022-09-02T01:15:55;18.30;52.60
14585;DHT22;7379;51.506;11.876;2022-09-02T01:18:26;18.30;52.70
14585;DHT22;7379;51.506;11.876;2022-09-02T01:20:53;18.20;52.60
14585;DHT22;7379;51.506;11.876;2022-09-02T01:23:22;18.20;52.60
14585;DHT22;7379;51.506;11.876;2022-09-02T01:25:49;18.20;52.70
14585;DHT22;7379;51.506;11.876;2022-09-02T01:28:18;18.20;52.80
14585;DHT22;7379;51.506;11.876;2022-09-02T01:30:47;18.20;52.80
14585;DHT22;7379;51.506;11.876;2022-09-02T01:33:15;18.20;52.80
14585;DHT22;7379;51.506;11.876;2022-09-02T01:35:42;18.20;52.90
14585;DHT22;7379;51.506;11.876;2022-09-02T01:38:10;18.10;52.90
14585;DHT22;7379;51.506;11.876;2022-09-02T01:40:38;18.10;52.90
14585;DHT22;7379;51.506;11.876;2022-09-02T01:43:08;18.10;52.90
14585;DHT22;7379;51.506;11.876;2022-09-02T01:45:38;18.10;53.00
14585;DHT22;7379;51.506;11.876;2022-09-02T01:48:07;18.10;53.00
14585;DHT22;7379;51.506;11.876;2022-09-02T01:50:35;18.10;53.00
14585;DHT22;7379;51.506;11.876;2022-09-02T01:53:03;18.10;53.10
14585;DHT22;7379;51.506;11.876;2022-09-02T01:55:30;18.10;53.10
14585;DHT22;7379;51.506;11.876;2022-09-02T01:57:58;18.00;53.10
14585;DHT22;7379;51.506;11.876;2022-09-02T02:00:25;18.00;53.10
14585;DHT22;7379;51.506;11.876;2022-09-02T02:02:53;18.00;53.10
14585;DHT22;7379;51.506;11.876;2022-09-02T02:05:20;18.00;53.10
14585;DHT22;7379;51.506;11.876;2022-09-02T02:07:47;18.00;53.20
14585;DHT22;7379;51.506;11.876;2022-09-02T02:10:17;18.00;53.20
14585;DHT22;7379;51.506;11.876;2022-09-02T02:12:45;18.00;53.30
14585;DHT22;7379;51.506;11.876;2022-09-02T02:15:15;17.90;53.20
14585;DHT22;7379;51.506;11.876;2022-09-02T02:17:42;17.90;53.90
14585;DHT22;7379;51.506;11.876;2022-09-02T02:20:12;17.90;53.30
14585;DHT22;7379;51.506;11.876;2022-09-02T02:22:40;17.90;53.30
14585;DHT22;7379;51.506;11.876;2022-09-02T02:25:08;17.90;53.40
14585;DHT22;7379;51.506;11.876;2022-09-02T02:27:35;17.90;53.40
14585;DHT22;7379;51.506;11.876;2022-09-02T02:30:03;17.90;53.40
14585;DHT22;7379;51.506;11.876;2022-09-02T02:32:31;17.80;53.40
14585;DHT22;7379;51.506;11.876;2022-09-02T02:34:58;17.80;53.40
14585;DHT22;7379;51.506;11.876;2022-09-02T02:37:25;17.80;53.40
14585;DHT22;7379;51.506;11.876;2022-09-02T02:39:52;17.80;53.50
14585;DHT22;7379;51.506;11.876;2022-09-02T02:42:19;17.80;53.50
14585;DHT22;7379;51.506;11.876;2022-09-02T02:44:45;17.80;53.50
14585;DHT22;7379;51.506;11.876;2022-09-02T02:47:12;17.80;53.60
14585;DHT22;7379;51.506;11.876;2022-09-02T02:49:43;17.80;53.60
14585;DHT22;7379;51.506;11.876;2022-09-02T02:52:10;17.80;53.60
14585;DHT22;7379;51.506;11.876;2022-09-02T02:54:38;17.70;53.50
14585;DHT22;7379;51.506;11.876;2022-09-02T02:57:07;17.70;53.60
14585;DHT22;7379;51.506;11.876;2022-09-02T02:59:34;17.70;53.60
14585;DHT22;7379;51.506;11.876;2022-09-02T03:02:03;17.70;53.60
14585;DHT22;7379;51.506;11.876;2022-09-02T03:04:29;17.70;53.70
14585;DHT22;7379;51.506;11.876;2022-09-02T03:06:58;17.60;53.60
14585;DHT22;7379;51.506;11.876;2022-09-02T03:09:25;17.60;53.60
14585;DHT22;7379;51.506;11.876;2022-09-02T03:11:51;17.60;53.60
14585;DHT22;7379;51.506;11.876;2022-09-02T03:14:18;17.60;53.70
14585;DHT22;7379;51.506;11.876;2022-09-02T03:16:45;17.60;53.70
14585;DHT22;7379;51.506;11.876;2022-09-02T03:19:12;17.60;53.70
14585;DHT22;7379;51.506;11.876;2022-09-02T03:21:39;17.60;53.70
14585;DHT22;7379;51.506;11.876;2022-09-02T03:24:09;17.60;53.70
14585;DHT22;7379;51.506;11.876;2022-09-02T03:26:37;17.50;53.70
14585;DHT22;7379;51.506;11.876;2022-09-02T03:29:04;17.50;53.70
14585;DHT22;7379;51.506;11.876;2022-09-02T03:31:31;17.50;53.70
14585;DHT22;7379;51.506;11.876;2022-09-02T03:33:57;17.50;53.80
14585;DHT22;7379;51.506;11.876;2022-09-02T03:36:27;17.50;53.80
14585;DHT22;7379;51.506;11.876;2022-09-02T03:38:54;17.50;53.80
14585;DHT22;7379;51.506;11.876;2022-09-02T03:41:23;17.50;53.90
14585;DHT22;7379;51.506;11.876;2022-09-02T03:43:50;17.40;53.80
14585;DHT22;7379;51.506;11.876;2022-09-02T03:46:17;17.40;53.80
14585;DHT22;7379;51.506;11.876;2022-09-02T03:48:45;17.40;53.80
14585;DHT22;7379;51.506;11.876;2022-09-02T03:51:12;17.40;53.90
14585;DHT22;7379;51.506;11.876;2022-09-02T03:53:39;17.40;53.90
14585;DHT22;7379;51.506;11.876;2022-09-02T03:56:07;17.40;53.90
14585;DHT22;7379;51.506;11.876;2022-09-02T03:58:38;17.40;53.90
14585;DHT22;7379;51.506;11.876;2022-09-02T04:01:05;17.30;53.90
14585;DHT22;7379;51.506;11.876;2022-09-02T04:03:32;17.30;53.90
14585;DHT22;7379;51.506;11.876;2022-09-02T04:05:59;17.30;53.90
14585;DHT22;7379;51.506;11.876;2022-09-02T04:08:26;17.30;54.00
14585;DHT22;7379;51.506;11.876;2022-09-02T04:10:53;17.30;54.00
14585;DHT22;7379;51.506;11.876;2022-09-02T04:13:21;17.30;54.00
14585;DHT22;7379;51.506;11.876;2022-09-02T04:15:49;17.30;54.00
14585;DHT22;7379;51.506;11.876;2022-09-02T04:18:16;17.30;54.00
14585;DHT22;7379;51.506;11.876;2022-09-02T04:20:44;17.30;54.10
14585;DHT22;7379;51.506;11.876;2022-09-02T04:23:11;17.20;54.00
14585;DHT22;7379;51.506;11.876;2022-09-02T04:25:39;17.20;54.00
14585;DHT22;7379;51.506;11.876;2022-09-02T04:28:07;17.20;54.00
14585;DHT22;7379;51.506;11.876;2022-09-02T04:30:36;17.20;54.10
14585;DHT22;7379;51.506;11.876;2022-09-02T04:33:05;17.20;54.10
14585;DHT22;7379;51.506;11.876;2022-09-02T04:35:31;17.20;54.10
14585;DHT22;7379;51.506;11.876;2022-09-02T04:38:00;17.10;54.00
14585;DHT22;7379;51.506;11.876;2022-09-02T04:40:27;17.10;54.00
14585;DHT22;7379;51.506;11.876;2022-09-02T04:42:54;17.10;54.00
14585;DHT22;7379;51.506;11.876;2022-09-02T04:45:21;17.10;53.90
14585;DHT22;7379;51.506;11.876;2022-09-02T04:47:48;17.10;53.90
14585;DHT22;7379;51.506;11.876;2022-09-02T04:50:16;17.10;53.80
14585;DHT22;7379;51.506;11.876;2022-09-02T04:52:43;17.10;53.80
14585;DHT22;7379;51.506;11.876;2022-09-02T04:55:09;17.00;53.70
14585;DHT22;7379;51.506;11.876;2022-09-02T04:57:37;17.00;53.70
14585;DHT22;7379;51.506;11.876;2022-09-02T05:00:05;17.00;54.40
14585;DHT22;7379;51.506;11.876;2022-09-02T05:02:32;17.00;53.70
14585;DHT22;7379;51.506;11.876;2022-09-02T05:04:59;17.00;53.70
14585;DHT22;7379;51.506;11.876;2022-09-02T05:07:27;17.00;53.70
14585;DHT22;7379;51.506;11.876;2022-09-02T05:09:56;17.00;53.80
14585;DHT22;7379;51.506;11.876;2022-09-02T05:12:23;16.90;53.70
14585;DHT22;7379;51.506;11.876;2022-09-02T05:14:52;17.00;54.50
14585;DHT22;7379;51.506;11.876;2022-09-02T05:17:20;16.90;53.70
14585;DHT22;7379;51.506;11.876;2022-09-02T05:19:47;16.90;53.70
14585;DHT22;7379;51.506;11.876;2022-09-02T05:22:14;16.90;53.80
14585;DHT22;7379;51.506;11.876;2022-09-02T05:24:42;16.90;53.80
14585;DHT22;7379;51.506;11.876;2022-09-02T05:27:09;16.90;53.90
14585;DHT22;7379;51.506;11.876;2022-09-02T05:29:36;16.90;53.90
14585;DHT22;7379;51.506;11.876;2022-09-02T05:32:03;16.90;53.90
14585;DHT22;7379;51.506;11.876;2022-09-02T05:34:32;16.80;53.90
14585;DHT22;7379;51.506;11.876;2022-09-02T05:37:00;16.80;53.90
14585;DHT22;7379;51.506;11.876;2022-09-02T05:39:27;16.80;54.00
14585;DHT22;7379;51.506;11.876;2022-09-02T05:41:56;16.80;54.00
14585;DHT22;7379;51.506;11.876;2022-09-02T05:44:24;16.80;54.10
14585;DHT22;7379;51.506;11.876;2022-09-02T05:46:51;16.80;54.10
14585;DHT22;7379;51.506;11.876;2022-09-02T05:49:18;16.80;54.20
14585;DHT22;7379;51.506;11.876;2022-09-02T05:51:48;16.80;54.20
14585;DHT22;7379;51.506;11.876;2022-09-02T05:54:18;16.80;54.30
14585;DHT22;7379;51.506;11.876;2022-09-02T05:56:49;16.80;54.30
14585;DHT22;7379;51.506;11.876;2022-09-02T05:59:17;16.80;54.30
14585;DHT22;7379;51.506;11.876;2022-09-02T06:01:45;16.70;54.30
14585;DHT22;7379;51.506;11.876;2022-09-02T06:04:12;16.70;54.40
14585;DHT22;7379;51.506;11.876;2022-09-02T06:06:40;16.70;55.10
14585;DHT22;7379;51.506;11.876;2022-09-02T06:09:08;16.70;54.40
14585;DHT22;7379;51.506;11.876;2022-09-02T06:11:36;16.70;54.50
14585;DHT22;7379;51.506;11.876;2022-09-02T06:14:05;16.70;54.50
14585;DHT22;7379;51.506;11.876;2022-09-02T06:16:34;16.70;54.60
14585;DHT22;7379;51.506;11.876;2022-09-02T06:19:01;16.70;54.60
14585;DHT22;7379;51.506;11.876;2022-09-02T06:21:29;16.70;54.70
14585;DHT22;7379;51.506;11.876;2022-09-02T06:23:56;16.70;54.80
14585;DHT22;7379;51.506;11.876;2022-09-02T06:26:23;16.70;54.80
14585;DHT22;7379;51.506;11.876;2022-09-02T06:28:50;16.70;54.90
14585;DHT22;7379;51.506;11.876;2022-09-02T06:31:20;16.70;54.90
14585;DHT22;7379;51.506;11.876;2022-09-02T06:33:51;16.70;55.00
14585;DHT22;7379;51.506;11.876;2022-09-02T06:36:19;16.60;55.00
14585;DHT22;7379;51.506;11.876;2022-09-02T06:38:50;16.60;55.00
14585;DHT22;7379;51.506;11.876;2022-09-02T06:41:19;16.70;55.10
14585;DHT22;7379;51.506;11.876;2022-09-02T06:43:48;16.70;55.20
14585;DHT22;7379;51.506;11.876;2022-09-02T06:46:16;16.70;55.20
14585;DHT22;7379;51.506;11.876;2022-09-02T06:48:43;16.70;55.80
14585;DHT22;7379;51.506;11.876;2022-09-02T06:51:16;16.70;55.10
14585;DHT22;7379;51.506;11.876;2022-09-02T06:53:43;16.70;55.10
14585;DHT22;7379;51.506;11.876;2022-09-02T06:56:10;16.70;55.20
14585;DHT22;7379;51.506;11.876;2022-09-02T06:58:37;16.70;55.90
14585;DHT22;7379;51.506;11.876;2022-09-02T07:01:04;16.70;55.20
14585;DHT22;7379;51.506;11.876;2022-09-02T07:03:31;16.70;55.30
14585;DHT22;7379;51.506;11.876;2022-09-02T07:06:17;16.70;55.30
14585;DHT22;7379;51.506;11.876;2022-09-02T07:08:44;16.70;55.40
14585;DHT22;7379;51.506;11.876;2022-09-02T07:11:16;16.70;55.50
14585;DHT22;7379;51.506;11.876;2022-09-02T07:13:43;16.70;55.50
14585;DHT22;7379;51.506;11.876;2022-09-02T07:16:10;16.80;55.70
14585;DHT22;7379;51.506;11.876;2022-09-02T07:18:37;16.80;55.80
14585;DHT22;7379;51.506;11.876;2022-09-02T07:21:04;16.80;56.00
14585;DHT22;7379;51.506;11.876;2022-09-02T07:23:32;16.80;56.20
14585;DHT22;7379;51.506;11.876;2022-09-02T07:25:58;16.80;56.20
14585;DHT22;7379;51.506;11.876;2022-09-02T07:28:25;16.80;56.20
14585;DHT22;7379;51.506;11.876;2022-09-02T07:30:53;16.80;56.30
14585;DHT22;7379;51.506;11.876;2022-09-02T07:33:21;16.80;56.20
14585;DHT22;7379;51.506;11.876;2022-09-02T07:35:49;16.90;56.30
14585;DHT22;7379;51.506;11.876;2022-09-02T07:38:17;16.90;56.30
14585;DHT22;7379;51.506;11.876;2022-09-02T07:40:45;16.90;56.20
14585;DHT22;7379;51.506;11.876;2022-09-02T07:43:13;16.90;56.20
14585;DHT22;7379;51.506;11.876;2022-09-02T07:45:40;16.90;56.20
14585;DHT22;7379;51.506;11.876;2022-09-02T07:48:08;16.90;56.20
14585;DHT22;7379;51.506;11.876;2022-09-02T07:50:35;16.90;56.20
14585;DHT22;7379;51.506;11.876;2022-09-02T07:53:03;17.00;56.20
14585;DHT22;7379;51.506;11.876;2022-09-02T07:55:32;17.00;56.20
14585;DHT22;7379;51.506;11.876;2022-09-02T07:58:02;17.00;56.20
14585;DHT22;7379;51.506;11.876;2022-09-02T08:00:30;17.00;56.20
14585;DHT22;7379;51.506;11.876;2022-09-02T08:02:56;17.00;56.00
14585;DHT22;7379;51.506;11.876;2022-09-02T08:05:24;17.00;56.00
14585;DHT22;7379;51.506;11.876;2022-09-02T08:07:51;17.10;56.20
14585;DHT22;7379;51.506;11.876;2022-09-02T08:10:18;17.10;56.10
14585;DHT22;7379;51.506;11.876;2022-09-02T08:12:46;17.10;56.00
14585;DHT22;7379;51.506;11.876;2022-09-02T08:15:14;17.10;55.90
14585;DHT22;7379;51.506;11.876;2022-09-02T08:17:41;17.20;55.90
14585;DHT22;7379;51.506;11.876;2022-09-02T08:20:10;17.20;55.70
14585;DHT22;7379;51.506;11.876;2022-09-02T08:22:37;17.20;55.80
14585;DHT22;7379;51.506;11.876;2022-09-02T08:25:05;17.20;55.70
14585;DHT22;7379;51.506;11.876;2022-09-02T08:27:32;17.20;55.70
14585;DHT22;7379;51.506;11.876;2022-09-02T08:29:59;17.30;55.70
14585;DHT22;7379;51.506;11.876;2022-09-02T08:32:27;17.30;55.60
14585;DHT22;7379;51.506;11.876;2022-09-02T08:34:55;17.30;55.50
14585;DHT22;7379;51.506;11.876;2022-09-02T08:37:22;17.30;55.50
14585;DHT22;7379;51.506;11.876;2022-09-02T08:39:49;17.40;55.60
14585;DHT22;7379;51.506;11.876;2022-09-02T08:42:20;17.40;55.40
14585;DHT22;7379;51.506;11.876;2022-09-02T08:44:48;17.40;55.30
14585;DHT22;7379;51.506;11.876;2022-09-02T08:47:22;17.40;55.20
14585;DHT22;7379;51.506;11.876;2022-09-02T08:49:54;17.40;55.10
14585;DHT22;7379;51.506;11.876;2022-09-02T08:52:30;17.50;55.10
14585;DHT22;7379;51.506;11.876;2022-09-02T08:54:59;17.50;55.00
14585;DHT22;7379;51.506;11.876;2022-09-02T08:57:27;17.50;54.80
14585;DHT22;7379;51.506;11.876;2022-09-02T08:59:57;17.50;54.50
14585;DHT22;7379;51.506;11.876;2022-09-02T09:02:31;17.50;54.30
14585;DHT22;7379;51.506;11.876;2022-09-02T09:05:09;17.50;54.10
14585;DHT22;7379;51.506;11.876;2022-09-02T09:07:49;17.50;53.90
14585;DHT22;7379;51.506;11.876;2022-09-02T09:10:23;17.50;53.90
14585;DHT22;7379;51.506;11.876;2022-09-02T09:13:03;17.50;53.60
14585;DHT22;7379;51.506;11.876;2022-09-02T09:15:41;17.50;53.40
14585;DHT22;7379;51.506;11.876;2022-09-02T09:18:12;17.50;53.30
14585;DHT22;7379;51.506;11.876;2022-09-02T09:20:43;17.50;52.90
14585;DHT22;7379;51.506;11.876;2022-09-02T09:23:20;17.50;52.80
14585;DHT22;7379;51.506;11.876;2022-09-02T09:25:49;17.50;52.80
14585;DHT22;7379;51.506;11.876;2022-09-02T09:28:17;17.50;52.60
14585;DHT22;7379;51.506;11.876;2022-09-02T09:30:44;17.50;52.50
14585;DHT22;7379;51.506;11.876;2022-09-02T09:33:14;17.50;52.30
14585;DHT22;7379;51.506;11.876;2022-09-02T09:35:51;17.50;52.20
14585;DHT22;7379;51.506;11.876;2022-09-02T09:38:28;17.50;52.20
14585;DHT22;7379;51.506;11.876;2022-09-02T09:41:12;17.50;52.20
14585;DHT22;7379;51.506;11.876;2022-09-02T09:43:40;17.50;52.20
14585;DHT22;7379;51.506;11.876;2022-09-02T09:46:28;17.50;52.10
14585;DHT22;7379;51.506;11.876;2022-09-02T09:48:57;17.60;52.20
14585;DHT22;7379;51.506;11.876;2022-09-02T09:51:25;17.50;52.00
14585;DHT22;7379;51.506;11.876;2022-09-02T09:53:52;17.60;51.80
14585;DHT22;7379;51.506;11.876;2022-09-02T09:56:39;17.60;51.70
14585;DHT22;7379;51.506;11.876;2022-09-02T09:59:36;17.60;51.50
14585;DHT22;7379;51.506;11.876;2022-09-02T10:02:05;17.60;51.40
14585;DHT22;7379;51.506;11.876;2022-09-02T10:04:32;17.60;51.40
14585;DHT22;7379;51.506;11.876;2022-09-02T10:07:00;17.60;51.10
14585;DHT22;7379;51.506;11.876;2022-09-02T10:09:33;17.70;51.10
14585;DHT22;7379;51.506;11.876;2022-09-02T10:12:02;17.70;51.00
14585;DHT22;7379;51.506;11.876;2022-09-02T10:14:33;17.70;50.50
14585;DHT22;7379;51.506;11.876;2022-09-02T10:17:12;17.70;50.30
14585;DHT22;7379;51.506;11.876;2022-09-02T10:19:51;17.70;50.10
14585;DHT22;7379;51.506;11.876;2022-09-02T10:22:41;17.80;50.00
14585;DHT22;7379;51.506;11.876;2022-09-02T10:25:26;17.80;50.00
14585;DHT22;7379;51.506;11.876;2022-09-02T10:28:01;17.80;49.80
14585;DHT22;7379;51.506;11.876;2022-09-02T10:30:42;17.90;49.70
14585;DHT22;7379;51.506;11.876;2022-09-02T10:33:24;17.90;49.60
14585;DHT22;7379;51.506;11.876;2022-09-02T10:35:56;17.90;49.60
14585;DHT22;7379;51.506;11.876;2022-09-02T10:38:37;17.90;49.30
14585;DHT22;7379;51.506;11.876;2022-09-02T10:41:16;17.90;49.10
14585;DHT22;7379;51.506;11.876;2022-09-02T10:43:57;18.00;49.20
14585;DHT22;7379;51.506;11.876;2022-09-02T10:46:26;18.00;49.20
14585;DHT22;7379;51.506;11.876;2022-09-02T10:49:02;18.10;49.20
14585;DHT22;7379;51.506;11.876;2022-09-02T10:51:37;18.10;48.80
14585;DHT22;7379;51.506;11.876;2022-09-02T10:54:23;18.10;48.50
14585;DHT22;7379;51.506;11.876;2022-09-02T10:56:57;18.20;48.60
14585;DHT22;7379;51.506;11.876;2022-09-02T10:59:29;18.20;48.40
14585;DHT22;7379;51.506;11.876;2022-09-02T11:02:06;18.20;48.40
14585;DHT22;7379;51.506;11.876;2022-09-02T11:04:40;18.20;48.30
14585;DHT22;7379;51.506;11.876;2022-09-02T11:07:15;18.20;48.30
14585;DHT22;7379;51.506;11.876;2022-09-02T11:09:48;18.20;48.10
14585;DHT22;7379;51.506;11.876;2022-09-02T11:12:20;18.20;48.10
14585;DHT22;7379;51.506;11.876;2022-09-02T11:14:56;18.30;48.30
14585;DHT22;7379;51.506;11.876;2022-09-02T11:17:29;18.30;48.10
14585;DHT22;7379;51.506;11.876;2022-09-02T11:19:59;18.40;48.30
14585;DHT22;7379;51.506;11.876;2022-09-02T11:22:32;18.40;48.50
14585;DHT22;7379;51.506;11.876;2022-09-02T11:25:09;18.40;48.20
14585;DHT22;7379;51.506;11.876;2022-09-02T11:27:42;18.40;48.10
14585;DHT22;7379;51.506;11.876;2022-09-02T11:30:12;18.40;47.70
14585;DHT22;7379;51.506;11.876;2022-09-02T11:32:42;18.50;47.60
14585;DHT22;7379;51.506;11.876;2022-09-02T11:35:16;18.60;47.20
14585;DHT22;7379;51.506;11.876;2022-09-02T11:37:46;18.60;47.00
14585;DHT22;7379;51.506;11.876;2022-09-02T11:40:22;18.60;47.40
14585;DHT22;7379;51.506;11.876;2022-09-02T11:43:15;18.70;46.80
14585;DHT22;7379;51.506;11.876;2022-09-02T11:46:09;18.70;46.70
14585;DHT22;7379;51.506;11.876;2022-09-02T11:49:02;18.70;46.70
14585;DHT22;7379;51.506;11.876;2022-09-02T11:54:41;18.70;46.50
14585;DHT22;7379;51.506;11.876;2022-09-02T11:57:12;18.80;46.60
14585;DHT22;7379;51.506;11.876;2022-09-02T12:00:06;18.80;46.60
14585;DHT22;7379;51.506;11.876;2022-09-02T12:02:37;18.80;46.10
14585;DHT22;7379;51.506;11.876;2022-09-02T12:11:40;18.80;46.00
14585;DHT22;7379;51.506;11.876;2022-09-02T12:14:09;18.80;46.20
14585;DHT22;7379;51.506;11.876;2022-09-02T12:16:58;18.90;46.00
14585;DHT22;7379;51.506;11.876;2022-09-02T12:19:40;18.90;45.80
14585;DHT22;7379;51.506;11.876;2022-09-02T12:22:32;18.90;45.70
14585;DHT22;7379;51.506;11.876;2022-09-02T12:25:04;18.90;45.00
14585;DHT22;7379;51.506;11.876;2022-09-02T12:27:33;18.90;44.90
14585;DHT22;7379;51.506;11.876;2022-09-02T12:30:05;19.00;44.90
14585;DHT22;7379;51.506;11.876;2022-09-02T12:35:48;19.20;44.00
14585;DHT22;7379;51.506;11.876;2022-09-02T12:38:33;19.30;43.80
14585;DHT22;7379;51.506;11.876;2022-09-02T12:41:20;19.30;43.60
14585;DHT22;7379;51.506;11.876;2022-09-02T12:44:02;19.20;43.60
14585;DHT22;7379;51.506;11.876;2022-09-02T12:46:45;19.20;43.50
14585;DHT22;7379;51.506;11.876;2022-09-02T12:49:26;19.20;43.60
14585;DHT22;7379;51.506;11.876;2022-09-02T12:51:56;19.20;43.60
14585;DHT22;7379;51.506;11.876;2022-09-02T12:54:32;19.30;43.80
14585;DHT22;7379;51.506;11.876;2022-09-02T12:57:00;19.30;43.70
14585;DHT22;7379;51.506;11.876;2022-09-02T12:59:29;19.40;43.70
14585;DHT22;7379;51.506;11.876;2022-09-02T13:02:13;19.40;43.70
14585;DHT22;7379;51.506;11.876;2022-09-02T13:04:49;19.50;43.50
14585;DHT22;7379;51.506;11.876;2022-09-02T13:07:51;19.50;43.30
14585;DHT22;7379;51.506;11.876;2022-09-02T13:10:45;19.50;43.20
14585;DHT22;7379;51.506;11.876;2022-09-02T13:16:21;19.50;43.30
14585;DHT22;7379;51.506;11.876;2022-09-02T13:22:31;19.50;43.20
14585;DHT22;7379;51.506;11.876;2022-09-02T13:25:27;19.60;42.80
14585;DHT22;7379;51.506;11.876;2022-09-02T13:28:29;19.70;42.30
14585;DHT22;7379;51.506;11.876;2022-09-02T13:31:09;19.80;41.90
14585;DHT22;7379;51.506;11.876;2022-09-02T13:33:39;19.90;42.10
14585;DHT22;7379;51.506;11.876;2022-09-02T13:36:08;19.90;41.70
14585;DHT22;7379;51.506;11.876;2022-09-02T13:38:35;19.90;41.90
14585;DHT22;7379;51.506;11.876;2022-09-02T13:41:02;20.00;41.40
14585;DHT22;7379;51.506;11.876;2022-09-02T13:43:29;20.10;41.70
14585;DHT22;7379;51.506;11.876;2022-09-02T13:46:00;20.20;41.30
14585;DHT22;7379;51.506;11.876;2022-09-02T13:48:29;20.20;41.20
14585;DHT22;7379;51.506;11.876;2022-09-02T13:51:00;20.10;41.00
14585;DHT22;7379;51.506;11.876;2022-09-02T13:53:33;20.00;41.60
14585;DHT22;7379;51.506;11.876;2022-09-02T13:56:01;20.00;41.00
14585;DHT22;7379;51.506;11.876;2022-09-02T13:58:34;20.00;41.00
14585;DHT22;7379;51.506;11.876;2022-09-02T14:01:23;20.00;41.30
14585;DHT22;7379;51.506;11.876;2022-09-02T14:03:54;20.00;41.40
14585;DHT22;7379;51.506;11.876;2022-09-02T14:06:24;20.20;41.20
14585;DHT22;7379;51.506;11.876;2022-09-02T14:08:55;20.40;41.00
14585;DHT22;7379;51.506;11.876;2022-09-02T14:11:23;20.50;40.80
14585;DHT22;7379;51.506;11.876;2022-09-02T14:13:51;20.50;41.00
14585;DHT22;7379;51.506;11.876;2022-09-02T14:16:29;20.60;40.60
14585;DHT22;7379;51.506;11.876;2022-09-02T14:19:09;20.70;40.50
14585;DHT22;7379;51.506;11.876;2022-09-02T14:21:46;20.70;40.40
14585;DHT22;7379;51.506;11.876;2022-09-02T14:24:19;20.70;40.40
14585;DHT22;7379;51.506;11.876;2022-09-02T14:26:47;20.80;40.40
14585;DHT22;7379;51.506;11.876;2022-09-02T14:29:26;20.80;40.00
14585;DHT22;7379;51.506;11.876;2022-09-02T14:32:10;21.00;40.30
14585;DHT22;7379;51.506;11.876;2022-09-02T14:34:39;21.20;39.80
14585;DHT22;7379;51.506;11.876;2022-09-02T14:37:24;21.20;39.90
14585;DHT22;7379;51.506;11.876;2022-09-02T14:40:03;21.30;40.00
14585;DHT22;7379;51.506;11.876;2022-09-02T14:42:33;21.40;39.90
14585;DHT22;7379;51.506;11.876;2022-09-02T14:45:09;21.40;39.60
14585;DHT22;7379;51.506;11.876;2022-09-02T14:47:38;21.50;39.30
14585;DHT22;7379;51.506;11.876;2022-09-02T14:50:09;21.50;39.20
14585;DHT22;7379;51.506;11.876;2022-09-02T14:52:45;21.50;39.20
14585;DHT22;7379;51.506;11.876;2022-09-02T14:55:41;21.60;39.10
14585;DHT22;7379;51.506;11.876;2022-09-02T14:58:08;21.60;39.20
14585;DHT22;7379;51.506;11.876;2022-09-02T15:00:35;21.60;39.20
14585;DHT22;7379;51.506;11.876;2022-09-02T15:03:04;21.60;39.50
14585;DHT22;7379;51.506;11.876;2022-09-02T15:05:32;21.60;39.00
14585;DHT22;7379;51.506;11.876;2022-09-02T15:07:59;21.70;38.90
14585;DHT22;7379;51.506;11.876;2022-09-02T15:10:27;21.70;38.70
14585;DHT22;7379;51.506;11.876;2022-09-02T15:12:55;21.80;38.50
14585;DHT22;7379;51.506;11.876;2022-09-02T15:15:23;21.90;38.60
14585;DHT22;7379;51.506;11.876;2022-09-02T15:17:51;21.90;38.20
14585;DHT22;7379;51.506;11.876;2022-09-02T15:20:18;21.90;38.30
14585;DHT22;7379;51.506;11.876;2022-09-02T15:22:46;21.80;38.50
14585;DHT22;7379;51.506;11.876;2022-09-02T15:25:12;21.80;38.40
14585;DHT22;7379;51.506;11.876;2022-09-02T15:27:41;21.70;38.70
14585;DHT22;7379;51.506;11.876;2022-09-02T15:30:09;21.60;38.90
14585;DHT22;7379;51.506;11.876;2022-09-02T15:32:36;21.60;39.20
14585;DHT22;7379;51.506;11.876;2022-09-02T15:35:03;21.50;39.40
14585;DHT22;7379;51.506;11.876;2022-09-02T15:37:31;21.50;39.60
14585;DHT22;7379;51.506;11.876;2022-09-02T15:40:02;21.30;39.60
14585;DHT22;7379;51.506;11.876;2022-09-02T15:42:29;21.30;39.90
14585;DHT22;7379;51.506;11.876;2022-09-02T15:44:57;21.30;39.70
14585;DHT22;7379;51.506;11.876;2022-09-02T15:47:24;21.40;39.70
14585;DHT22;7379;51.506;11.876;2022-09-02T15:49:51;21.30;39.70
14585;DHT22;7379;51.506;11.876;2022-09-02T15:52:18;21.20;39.90
14585;DHT22;7379;51.506;11.876;2022-09-02T15:54:44;21.20;40.60
14585;DHT22;7379;51.506;11.876;2022-09-02T15:57:11;21.20;40.10
14585;DHT22;7379;51.506;11.876;2022-09-02T15:59:39;21.20;40.00
14585;DHT22;7379;51.506;11.876;2022-09-02T16:02:07;21.10;40.00
14585;DHT22;7379;51.506;11.876;2022-09-02T16:04:34;21.10;40.10
14585;DHT22;7379;51.506;11.876;2022-09-02T16:07:00;21.00;40.20
14585;DHT22;7379;51.506;11.876;2022-09-02T16:09:27;21.00;40.30
14585;DHT22;7379;51.506;11.876;2022-09-02T16:11:54;21.10;40.20